FAHS/HDS METAR and TAF weather

Enter ICAO airport designator
Station Type Date Time Source
FAHS METAR 2022/11/30 17:00 UTC NOAA

FAHS 301700Z AUTO 13004KT //// // ////// 25/14 Q1017


Station Type Date Time Source
FAHS Decoded METAR 2022/11/30 17:00 UTC NOAA

Hoedspruit, South Africa (FAHS) 24-22S 031-02E 500M
Nov 30, 2022 - 12:00 PM EST / 2022.11.30 1700 UTC
Wind: from the SE (130 degrees) at 5 MPH (4 KT):0
Temperature: 77 F (25 C)
Dew Point: 57 F (14 C)
Relative Humidity: 50%
Pressure (altimeter): 30.03 in. Hg (1017 hPa)
ob: FAHS 301700Z AUTO 13004KT //// // ////// 25/14 Q1017
cycle: 17

Station Type Date Time Source
FAHS TAF 2017/05/23 04:01 UTC NOAA

TAF FAHS 230300Z 2304/2315 VRB02KT CAVOK TX29/2312ZTN12/2304Z

Example: see airport list